Time;durP1;ratioP1;P1;durP2;ratioP2;P2;SDS_P1;SDS_P2;PMS_P1;PMS_P2;Temp;Humidity;BMP_temperature;BMP_pressure;BME280_temperature;BME280_humidity;BME280_pressure;Samples;Min_cycle;Max_cycle;Signal;HPM_P1;HPM_P2
2023/08/28 00:01:55;;;;;;;3.17;0.80;;;;;;;14.09;100.00;101204.22;4975955;28;20732;-77
2023/08/28 00:04:21;;;;;;;3.30;1.10;;;;;;;14.48;100.00;101262.56;4976513;28;20670;-77
2023/08/28 00:06:46;;;;;;;2.53;0.90;;;;;;;14.66;100.00;101293.47;4958357;28;20182;-77
2023/08/28 00:09:11;;;;;;;3.23;1.20;;;;;;;13.74;100.00;101169.47;4961333;28;20194;-76
2023/08/28 00:11:37;;;;;;;2.83;1.00;;;;;;;13.73;100.00;101140.03;4974970;28;20221;-76
2023/08/28 00:14:02;;;;;;;3.03;0.83;;;;;;;14.29;100.00;101251.84;4958902;28;20581;-76
2023/08/28 00:16:28;;;;;;;2.63;0.87;;;;;;;13.71;100.00;101160.97;4963101;28;20556;-76
2023/08/28 00:18:53;;;;;;;3.23;0.90;;;;;;;13.99;100.00;101198.44;4976484;28;20205;-76
2023/08/28 00:21:19;;;;;;;3.00;1.07;;;;;;;14.83;100.00;101310.00;4962523;28;20674;-76
2023/08/28 00:23:44;;;;;;;2.57;1.00;;;;;;;14.57;100.00;101306.38;4978482;28;20198;-75
2023/08/28 00:26:10;;;;;;;2.37;0.80;;;;;;;14.12;100.00;101241.56;4956640;28;20218;-75
2023/08/28 00:28:35;;;;;;;3.23;0.97;;;;;;;14.56;100.00;101307.44;4977861;28;20186;-76
2023/08/28 00:31:03;;;;;;;3.50;0.90;;;;;;;13.71;100.00;101215.72;4975074;28;20206;-77
2023/08/28 00:33:29;;;;;;;2.33;0.97;;;;;;;13.70;100.00;101187.09;4979332;28;20281;-75
2023/08/28 00:35:54;;;;;;;3.40;1.00;;;;;;;13.35;100.00;101124.56;4973727;28;20461;-76
2023/08/28 00:38:19;;;;;;;3.80;1.20;;;;;;;14.40;100.00;101305.16;4975821;28;20194;-75
2023/08/28 00:40:45;;;;;;;4.07;1.10;;;;;;;14.30;100.00;101326.38;4974984;28;20298;-76
2023/08/28 00:43:10;;;;;;;2.73;0.90;;;;;;;14.39;100.00;101309.75;4975665;28;20194;-76
2023/08/28 00:45:42;;;;;;;4.80;1.27;;;;;;;13.62;100.00;101186.50;4958927;28;20233;-75
2023/08/28 00:48:10;;;;;;;2.27;0.90;;;;;;;13.67;100.00;101210.97;4958486;28;20555;-76
2023/08/28 00:50:37;;;;;;;3.10;0.90;;;;;;;13.82;100.00;101205.31;4958400;28;21039;-77
2023/08/28 00:53:03;;;;;;;3.83;1.17;;;;;;;14.40;100.00;101305.16;4969078;28;20449;-76
2023/08/28 00:55:32;;;;;;;2.60;0.80;;;;;;;14.16;100.00;101255.44;4964989;28;20476;-75
2023/08/28 00:57:57;;;;;;;2.30;0.80;;;;;;;14.29;100.00;101298.59;4958750;28;20436;-75
2023/08/28 01:00:22;;;;;;;4.73;1.17;;;;;;;14.19;100.00;101263.09;4958252;28;20543;-75
2023/08/28 01:02:49;;;;;;;4.30;1.07;;;;;;;13.15;100.00;101180.31;4970096;28;20194;-76
2023/08/28 01:05:15;;;;;;;4.37;1.13;;;;;;;13.63;100.00;101234.00;4980635;28;20187;-75
2023/08/28 01:08:23;;;;;;;2.93;0.83;;;;;;;13.67;100.00;101213.66;4956836;28;20473;-76
2023/08/28 01:10:58;;;;;;;6.20;0.90;;;;;;;12.39;100.00;101063.91;4998667;23;20520;-76
2023/08/28 01:13:36;;;;;;;1.90;0.90;;;;;;;12.05;100.00;100957.31;5013624;28;20936;-77
2023/08/28 01:16:03;;;;;;;2.50;1.10;;;;;;;11.96;100.00;100970.13;5003154;28;20445;-77
2023/08/28 01:18:30;;;;;;;3.40;1.50;;;;;;;12.18;100.00;101013.00;5011255;28;20436;-78
2023/08/28 01:20:57;;;;;;;3.97;1.20;;;;;;;13.84;100.00;101243.69;4988397;28;20467;-76
2023/08/28 01:24:11;;;;;;;3.70;0.97;;;;;;;13.85;100.00;101261.53;4996683;28;20502;-77
2023/08/28 01:26:36;;;;;;;3.40;0.90;;;;;;;14.19;100.00;101327.84;4982073;28;20425;-77
2023/08/28 01:29:03;;;;;;;2.30;0.90;;;;;;;14.20;100.00;101338.44;4996794;28;20429;-77
2023/08/28 01:31:28;;;;;;;4.03;0.97;;;;;;;12.69;100.00;101084.19;4996982;28;20197;-78
2023/08/28 01:33:55;;;;;;;2.60;0.80;;;;;;;13.77;100.00;101263.41;4993445;28;20425;-77
2023/08/28 01:36:32;;;;;;;3.30;1.03;;;;;;;13.54;100.00;101222.59;4989984;28;20615;-77
2023/08/28 01:39:17;;;;;;;3.50;1.17;;;;;;;13.59;100.00;101217.38;5002418;28;20448;-76
2023/08/28 01:41:45;;;;;;;2.90;0.90;;;;;;;14.20;100.00;101302.53;4993867;28;20462;-76
2023/08/28 01:44:11;;;;;;;3.63;1.10;;;;;;;13.51;100.00;101199.59;4990756;28;20436;-76
2023/08/28 01:46:37;;;;;;;2.57;1.00;;;;;;;13.76;100.00;101220.47;4991102;28;20460;-76
2023/08/28 01:49:03;;;;;;;2.47;0.80;;;;;;;14.25;100.00;101316.22;4993588;28;20972;-76
2023/08/28 01:51:28;;;;;;;3.20;1.30;;;;;;;13.92;100.00;101263.19;4996304;28;20452;-75
2023/08/28 01:53:54;;;;;;;3.10;1.13;;;;;;;14.14;100.00;101324.94;4994870;28;20717;-75
2023/08/28 01:56:21;;;;;;;2.63;0.90;;;;;;;14.15;100.00;101324.75;4992985;28;20598;-75
2023/08/28 01:58:49;;;;;;;3.70;1.33;;;;;;;13.48;100.00;101205.41;4995774;28;20269;-75
2023/08/28 02:01:15;;;;;;;2.47;0.90;;;;;;;13.47;100.00;101229.84;4995443;28;20472;-75
2023/08/28 02:03:41;;;;;;;3.43;0.83;;;;;;;14.23;100.00;101327.22;4992737;28;20930;-75
2023/08/28 02:06:07;;;;;;;2.50;0.97;;;;;;;14.14;100.00;101324.94;4992413;28;20478;-76
2023/08/28 02:08:33;;;;;;;3.83;1.10;;;;;;;13.61;100.00;101263.00;5002414;28;20185;-75
2023/08/28 02:10:58;;;;;;;2.80;0.90;;;;;;;13.99;100.00;101333.28;4995118;28;20467;-75
2023/08/28 02:13:24;;;;;;;2.43;0.90;;;;;;;14.05;100.00;101334.31;4993342;28;20188;-74
2023/08/28 02:15:49;;;;;;;4.20;1.20;;;;;;;14.07;100.00;101343.84;4990791;28;20193;-74
2023/08/28 02:18:15;;;;;;;2.00;0.80;;;;;;;13.48;100.00;101234.19;4990044;28;20201;-74
2023/08/28 02:20:40;;;;;;;5.40;1.07;;;;;;;13.12;100.00;101195.00;4989971;28;20211;-75
2023/08/28 02:23:07;;;;;;;3.20;0.80;;;;;;;13.97;100.00;101325.41;4990351;28;20197;-75
2023/08/28 02:25:32;;;;;;;2.50;1.00;;;;;;;13.59;100.00;101279.38;4990672;28;20213;-75
2023/08/28 02:27:58;;;;;;;6.13;1.00;;;;;;;13.41;100.00;101246.84;4994130;28;20483;-75
2023/08/28 02:30:23;;;;;;;3.50;1.10;;;;;;;12.85;100.00;101237.25;4991298;28;20209;-75
2023/08/28 02:32:49;;;;;;;9.00;1.10;;;;;;;13.82;100.00;101361.72;4991336;28;20677;-76
2023/08/28 02:35:14;;;;;;;4.03;1.13;;;;;;;13.43;100.00;101302.19;4990075;28;20701;-76
2023/08/28 02:37:40;;;;;;;2.93;1.10;;;;;;;13.72;100.00;101364.81;4989752;28;20189;-76
2023/08/28 02:40:06;;;;;;;2.20;0.83;;;;;;;13.38;100.00;101260.72;4990262;28;20647;-75
2023/08/28 02:42:32;;;;;;;3.07;1.00;;;;;;;13.74;100.00;101309.66;4991389;28;20725;-75
2023/08/28 02:44:58;;;;;;;3.33;0.90;;;;;;;13.73;100.00;101297.22;4989564;28;20437;-75
2023/08/28 02:47:23;;;;;;;2.87;1.10;;;;;;;13.22;100.00;101214.28;4991979;28;20956;-74
2023/08/28 02:49:49;;;;;;;4.73;0.80;;;;;;;13.25;100.00;101207.63;4992524;28;20237;-75
2023/08/28 02:52:14;;;;;;;2.73;0.90;;;;;;;11.60;100.00;100978.50;4995145;28;20189;-74
2023/08/28 02:54:40;;;;;;;5.30;1.90;;;;;;;10.80;100.00;100814.44;4993753;28;20194;-75
2023/08/28 02:57:05;;;;;;;2.47;1.00;;;;;;;13.07;100.00;101189.41;4990717;28;20558;-75
2023/08/28 02:59:31;;;;;;;2.27;0.93;;;;;;;11.83;100.00;100996.97;4992413;28;20276;-75
2023/08/28 03:01:57;;;;;;;1.83;0.80;;;;;;;12.26;100.00;101071.94;4992484;28;20200;-75
2023/08/28 03:04:22;;;;;;;2.10;0.80;;;;;;;10.96;100.00;100856.19;4989834;28;20433;-77
2023/08/28 03:06:48;;;;;;;3.30;0.97;;;;;;;12.08;100.00;101083.28;4991797;28;20181;-76
2023/08/28 03:09:14;;;;;;;2.83;0.80;;;;;;;14.02;100.00;101341.78;4988659;28;20229;-75
2023/08/28 03:11:40;;;;;;;4.80;1.20;;;;;;;12.13;100.00;101028.91;4992203;28;20196;-75
2023/08/28 03:14:05;;;;;;;3.13;1.33;;;;;;;11.81;100.00;101007.09;4990005;28;20980;-75
2023/08/28 03:16:31;;;;;;;2.13;0.83;;;;;;;12.24;100.00;101057.03;4992539;28;20216;-75
2023/08/28 03:18:56;;;;;;;3.00;0.83;;;;;;;11.87;100.00;100975.91;4991800;28;20189;-75
2023/08/28 03:21:22;;;;;;;2.97;0.90;;;;;;;12.48;100.00;101034.94;4992182;28;20215;-76
2023/08/28 03:23:47;;;;;;;2.30;0.80;;;;;;;13.73;100.00;101278.34;4990617;28;20596;-75
2023/08/28 03:26:13;;;;;;;3.00;0.90;;;;;;;11.40;100.00;100864.78;4989678;28;20186;-76
2023/08/28 03:28:38;;;;;;;2.23;0.90;;;;;;;11.16;100.00;100866.19;4990132;28;20635;-75
2023/08/28 03:31:04;;;;;;;2.30;0.90;;;;;;;12.39;100.00;101044.25;4992760;28;20707;-75
2023/08/28 03:33:30;;;;;;;2.27;0.83;;;;;;;13.24;100.00;101203.28;4991917;28;20554;-75
2023/08/28 03:35:56;;;;;;;3.70;0.70;;;;;;;14.06;100.00;101379.97;4994443;28;20452;-75
2023/08/28 03:38:22;;;;;;;1.97;0.90;;;;;;;11.97;100.00;101065.03;4996485;28;20435;-74
2023/08/28 03:40:47;;;;;;;3.50;1.00;;;;;;;11.79;100.00;100978.75;4993688;28;20300;-75
2023/08/28 03:43:13;;;;;;;2.20;0.90;;;;;;;13.21;100.00;101196.44;4994819;28;20236;-76
2023/08/28 03:45:39;;;;;;;2.43;0.80;;;;;;;12.99;100.00;101178.81;4996699;28;20191;-76
2023/08/28 03:48:05;;;;;;;3.13;1.10;;;;;;;12.42;100.00;101156.81;4995206;28;20212;-75
2023/08/28 03:50:31;;;;;;;5.13;1.50;;;;;;;12.07;100.00;101174.91;4996190;28;20451;-75
2023/08/28 03:53:00;;;;;;;3.63;1.60;;;;;;;13.41;100.00;101436.28;4993509;28;20425;-75
2023/08/28 03:55:29;;;;;;;3.77;1.33;;;;;;;11.74;100.00;101159.38;5002082;28;20743;-74
2023/08/28 03:57:55;;;;;;;3.73;1.20;;;;;;;11.74;100.00;101189.81;4992756;28;20536;-75
2023/08/28 04:00:21;;;;;;;3.30;1.17;;;;;;;11.36;100.00;101151.72;4994509;28;20464;-75
2023/08/28 04:02:48;;;;;;;3.57;1.60;;;;;;;11.26;100.00;101135.16;4993747;28;20478;-74
2023/08/28 04:05:15;;;;;;;4.67;1.50;;;;;;;13.31;100.00;101479.78;4994522;28;20605;-75
2023/08/28 04:07:41;;;;;;;4.40;1.20;;;;;;;10.69;100.00;101021.59;4997336;28;20467;-75
2023/08/28 04:10:07;;;;;;;5.50;1.70;;;;;;;10.98;100.00;101127.91;5007283;28;20953;-75
2023/08/28 04:12:33;;;;;;;3.30;1.17;;;;;;;10.91;100.00;101131.56;4993570;28;20436;-75
2023/08/28 04:14:59;;;;;;;2.40;1.20;;;;;;;11.81;100.00;101278.53;4995826;28;20476;-75
2023/08/28 04:17:25;;;;;;;4.13;1.10;;;;;;;11.57;100.00;101185.78;4996460;28;20197;-75
2023/08/28 04:19:52;;;;;;;3.30;1.30;;;;;;;10.72;100.00;101144.59;4994102;28;20205;-74
2023/08/28 04:22:21;;;;;;;2.33;1.27;;;;;;;12.15;100.00;101382.63;4994922;28;20487;-75
2023/08/28 04:24:50;;;;;;;7.13;1.80;;;;;;;11.82;100.00;101317.81;4991433;28;20440;-75
2023/08/28 04:27:16;;;;;;;6.30;1.50;;;;;;;11.07;100.00;101209.94;4996755;28;20490;-75
2023/08/28 04:29:42;;;;;;;3.67;1.23;;;;;;;12.50;100.00;101465.19;4993906;28;20448;-75
2023/08/28 04:32:09;;;;;;;4.77;1.40;;;;;;;11.94;100.00;101355.75;4994909;28;20441;-75
2023/08/28 04:34:34;;;;;;;3.47;1.33;;;;;;;12.28;100.00;101430.28;4993422;28;20834;-75
2023/08/28 04:37:00;;;;;;;2.93;1.30;;;;;;;11.58;100.00;101313.69;4993873;28;20436;-75
2023/08/28 04:39:25;;;;;;;3.40;1.30;;;;;;;10.93;100.00;101243.06;4992423;28;20189;-75
2023/08/28 04:41:52;;;;;;;4.60;1.10;;;;;;;11.59;100.00;101374.47;4995612;28;20190;-76
2023/08/28 04:44:18;;;;;;;3.50;1.30;;;;;;;11.94;100.00;101378.09;4992188;28;20186;-77
2023/08/28 04:46:45;;;;;;;2.50;1.20;;;;;;;10.82;100.00;101163.09;4990407;28;20962;-77
2023/08/28 04:49:11;;;;;;;3.33;1.50;;;;;;;11.93;100.00;101432.91;4992538;28;20429;-76
2023/08/28 04:51:36;;;;;;;2.60;1.20;;;;;;;10.61;100.00;101217.53;4992204;28;20479;-77
2023/08/28 04:54:02;;;;;;;3.57;1.10;;;;;;;11.32;100.00;101343.84;4994784;28;20193;-77
2023/08/28 04:56:28;;;;;;;2.80;1.23;;;;;;;11.04;100.00;101301.59;4990122;28;20185;-76
2023/08/28 04:58:53;;;;;;;3.57;0.90;;;;;;;10.62;100.00;101157.53;4992467;28;20190;-77
2023/08/28 05:01:19;;;;;;;5.73;1.20;;;;;;;11.83;100.00;101373.25;4994982;28;20216;-77
2023/08/28 05:03:44;;;;;;;2.90;1.13;;;;;;;12.83;100.00;101486.97;4991326;28;20654;-77
2023/08/28 05:06:09;;;;;;;4.47;1.20;;;;;;;12.20;100.00;101439.31;4994223;28;20650;-77
2023/08/28 05:08:35;;;;;;;4.07;1.33;;;;;;;12.47;100.00;101453.00;4992499;28;20208;-77
2023/08/28 05:11:03;;;;;;;2.23;1.20;;;;;;;10.90;100.00;101264.09;4994102;28;20221;-76
2023/08/28 05:13:28;;;;;;;5.40;1.50;;;;;;;10.94;100.00;101251.97;4991517;28;20233;-76
2023/08/28 05:15:54;;;;;;;2.67;1.13;;;;;;;10.93;100.00;101296.72;4992501;28;20492;-76
2023/08/28 05:18:19;;;;;;;3.50;1.30;;;;;;;12.33;100.00;101513.94;4991518;28;20197;-76
2023/08/28 05:20:44;;;;;;;4.33;1.10;;;;;;;11.36;100.00;101385.38;4993556;28;20232;-77
2023/08/28 05:23:10;;;;;;;2.53;1.00;;;;;;;12.01;100.00;101440.00;4992812;28;20196;-77
2023/08/28 05:25:35;;;;;;;3.07;1.00;;;;;;;11.57;100.00;101375.66;4993156;28;20265;-76
2023/08/28 05:28:01;;;;;;;3.10;0.97;;;;;;;12.27;100.00;101442.09;4991631;28;20182;-77
2023/08/28 05:30:26;;;;;;;2.33;0.87;;;;;;;11.24;100.00;101209.69;4990660;28;20267;-77
2023/08/28 05:32:52;;;;;;;2.23;1.00;;;;;;;12.02;100.00;101360.19;4991280;28;20229;-76
2023/08/28 05:35:18;;;;;;;2.83;0.90;;;;;;;13.50;100.00;101595.94;4989949;28;20587;-77
2023/08/28 05:37:43;;;;;;;2.77;1.00;;;;;;;11.52;100.00;101266.94;4990794;28;20276;-77
2023/08/28 05:40:13;;;;;;;3.10;1.00;;;;;;;12.08;100.00;101338.72;4992842;28;20448;-77
2023/08/28 05:42:39;;;;;;;4.67;1.27;;;;;;;12.44;100.00;101399.59;4992414;28;20178;-76
2023/08/28 05:45:05;;;;;;;6.50;1.17;;;;;;;12.33;100.00;101400.94;4990840;28;20458;-77
2023/08/28 05:47:32;;;;;;;7.47;1.20;;;;;;;12.57;100.00;101415.78;5003923;28;20208;-77
2023/08/28 05:49:58;;;;;;;3.30;1.20;;;;;;;11.37;100.00;101161.47;4990417;28;21145;-76
2023/08/28 05:52:23;;;;;;;5.30;1.20;;;;;;;11.26;100.00;101145.88;4992887;28;20441;-77
2023/08/28 05:54:48;;;;;;;2.57;0.90;;;;;;;12.17;100.00;101325.94;4992962;28;20206;-76
2023/08/28 05:57:14;;;;;;;4.10;1.60;;;;;;;12.26;100.00;101366.94;4991430;28;20235;-77
2023/08/28 05:59:39;;;;;;;4.23;1.10;;;;;;;12.55;100.00;101376.66;4990627;28;20279;-77
2023/08/28 06:02:05;;;;;;;3.17;1.10;;;;;;;11.27;100.00;101139.47;4995686;28;20193;-76
2023/08/28 06:04:31;;;;;;;2.70;1.00;;;;;;;12.60;100.00;101368.81;4990009;28;20193;-77
2023/08/28 06:06:57;;;;;;;2.93;1.23;;;;;;;11.83;100.00;101244.22;4990179;28;20185;-76
2023/08/28 06:09:22;;;;;;;2.87;1.00;;;;;;;12.59;100.00;101351.03;4990206;28;20450;-77
2023/08/28 06:11:48;;;;;;;3.00;1.27;;;;;;;14.42;100.00;101670.16;4995279;28;20196;-76
2023/08/28 06:14:13;;;;;;;2.77;1.20;;;;;;;13.30;100.00;101479.97;5004965;28;20300;-76
2023/08/28 06:16:39;;;;;;;6.27;1.13;;;;;;;11.89;100.00;101248.84;4992598;28;20745;-76
2023/08/28 06:19:04;;;;;;;2.37;0.90;;;;;;;12.75;100.00;101364.13;4990872;28;20658;-76
2023/08/28 06:21:30;;;;;;;5.47;1.30;;;;;;;12.61;100.00;101341.72;4991472;28;20692;-76
2023/08/28 06:23:55;;;;;;;2.23;0.93;;;;;;;12.76;100.00;101303.88;4989471;28;20646;-75
2023/08/28 06:26:21;;;;;;;2.53;0.90;;;;;;;14.32;100.00;101553.66;4990998;28;20200;-74
2023/08/28 06:28:46;;;;;;;4.43;1.10;;;;;;;14.56;100.00;101606.25;4994759;28;20196;-74
2023/08/28 06:31:12;;;;;;;3.90;1.23;;;;;;;14.17;100.00;101514.19;4993554;28;20213;-74
2023/08/28 06:33:38;;;;;;;2.90;0.97;;;;;;;14.67;100.00;101600.25;4990689;28;20619;-75
2023/08/28 06:36:03;;;;;;;3.27;0.80;;;;;;;13.31;100.00;101376.59;4990478;28;20622;-76
2023/08/28 06:38:29;;;;;;;3.07;1.00;;;;;;;13.94;100.00;101476.84;4991098;28;20460;-75
2023/08/28 06:40:55;;;;;;;4.23;1.13;;;;;;;14.22;100.00;101516.28;4990673;28;21011;-75
2023/08/28 06:43:21;;;;;;;2.87;1.07;;;;;;;15.09;100.00;101615.16;4991233;28;20194;-75
2023/08/28 06:45:46;;;;;;;2.27;0.77;;;;;;;13.16;100.00;101303.97;4989450;28;20929;-75
2023/08/28 06:48:12;;;;;;;4.20;1.00;;;;;;;13.40;100.00;101347.59;4990354;28;20650;-74
2023/08/28 06:50:38;;;;;;;3.83;0.80;;;;;;;15.23;100.00;101631.38;4989887;28;20209;-75
2023/08/28 06:53:04;;;;;;;1.93;0.70;;;;;;;13.61;100.00;101358.19;4992467;28;20292;-75
2023/08/28 06:55:30;;;;;;;2.33;0.90;;;;;;;14.96;100.00;101584.66;4989709;28;20202;-75
2023/08/28 06:57:55;;;;;;;3.07;0.80;;;;;;;13.45;100.00;101316.28;4992420;28;20185;-75
2023/08/28 07:00:21;;;;;;;3.40;1.07;;;;;;;15.53;100.00;101634.41;4989284;28;20872;-74
2023/08/28 07:02:47;;;;;;;2.30;0.80;;;;;;;13.23;100.00;101269.81;4991645;28;20209;-75
2023/08/28 07:05:13;;;;;;;3.33;0.80;;;;;;;13.70;100.00;101300.31;4989716;28;20456;-75
2023/08/28 07:07:38;;;;;;;2.53;1.07;;;;;;;15.80;100.00;101616.28;4988567;28;20719;-75
2023/08/28 07:10:05;;;;;;;3.27;0.87;;;;;;;13.38;100.00;101214.94;5000724;23;20328;-79
2023/08/28 07:12:30;;;;;;;3.03;0.77;;;;;;;13.36;100.00;101180.09;5003296;28;20193;-77
2023/08/28 07:15:26;;;;;;;3.23;0.90;;;;;;;13.87;100.00;101287.25;4992305;28;20472;-76
2023/08/28 07:17:51;;;;;;;2.43;0.80;;;;;;;14.19;100.00;101303.56;4990257;28;20716;-78
2023/08/28 07:20:17;;;;;;;2.97;0.80;;;;;;;13.94;100.00;101268.34;4991912;28;20448;-77
2023/08/28 07:22:43;;;;;;;4.70;0.70;;;;;;;14.71;100.00;101361.16;4993665;28;20765;-76
2023/08/28 07:25:09;;;;;;;2.77;0.93;;;;;;;14.75;100.00;101361.56;4990905;28;20233;-77
2023/08/28 07:27:34;;;;;;;5.60;1.07;;;;;;;14.46;100.00;101282.72;4990772;28;20240;-76
2023/08/28 07:30:06;;;;;;;3.90;0.73;;;;;;;14.28;100.00;101277.19;4995696;28;20956;-77
2023/08/28 07:32:32;;;;;;;2.23;0.80;;;;;;;16.18;100.00;101569.44;4992096;28;20190;-76
2023/08/28 07:35:00;;;;;;;2.77;1.00;;;;;;;15.26;100.00;101393.13;4991273;28;20507;-77
2023/08/28 07:37:34;;;;;;;2.83;0.70;;;;;;;14.48;100.00;101262.56;4990087;28;20440;-77
2023/08/28 07:39:59;;;;;;;2.10;0.80;;;;;;;14.46;100.00;101255.72;4989506;28;20547;-77
2023/08/28 07:42:25;;;;;;;3.03;0.70;;;;;;;14.37;100.00;101240.81;4994211;28;20889;-76
2023/08/28 07:44:50;;;;;;;3.10;0.97;;;;;;;14.37;100.00;101213.84;4990545;28;20185;-77
2023/08/28 07:47:16;;;;;;;4.10;0.80;;;;;;;16.43;100.00;101548.66;4993439;28;20529;-78
2023/08/28 07:49:43;;;;;;;2.10;0.70;;;;;;;14.66;100.00;101229.50;4990008;28;20256;-77
2023/08/28 07:52:09;;;;;;;2.30;0.70;;;;;;;14.83;100.00;101273.03;4991659;28;20216;-78
2023/08/28 07:54:36;;;;;;;1.80;0.70;;;;;;;15.52;100.00;101382.16;4990242;28;20460;-77
2023/08/28 07:57:03;;;;;;;4.70;1.03;;;;;;;14.30;100.00;101175.28;4990552;28;20476;-77
2023/08/28 07:59:29;;;;;;;2.17;0.70;;;;;;;16.62;100.00;101505.38;4993610;28;20437;-77
2023/08/28 08:01:55;;;;;;;2.60;0.80;;;;;;;14.25;100.00;101103.88;4992240;28;20507;-78
2023/08/28 08:04:21;;;;;;;3.00;0.70;;;;;;;14.41;100.00;101134.94;4992610;28;20186;-77
2023/08/28 08:06:46;;;;;;;3.60;0.93;;;;;;;14.45;100.00;101128.06;4990727;28;20186;-79
2023/08/28 08:09:11;;;;;;;3.23;0.67;;;;;;;15.95;100.00;101357.09;4992788;28;20268;-79
2023/08/28 08:11:37;;;;;;;4.17;0.80;;;;;;;16.81;100.00;101474.59;5002242;28;20241;-78
2023/08/28 08:14:03;;;;;;;2.53;1.07;;;;;;;16.67;100.00;101421.56;4995487;28;20181;-78
2023/08/28 08:16:29;;;;;;;2.80;0.77;;;;;;;16.76;100.00;101447.34;4993873;28;20549;-78
2023/08/28 08:18:54;;;;;;;2.80;0.60;;;;;;;16.73;100.00;101443.16;4991348;28;20436;-78
2023/08/28 08:21:20;;;;;;;2.87;0.90;;;;;;;16.06;100.00;101325.78;4993325;28;20205;-78
2023/08/28 08:23:45;;;;;;;3.77;0.90;;;;;;;16.26;100.00;101334.53;4993492;28;20194;-78
2023/08/28 08:26:11;;;;;;;3.30;0.90;;;;;;;16.23;100.00;101310.63;4994365;28;20708;-79
2023/08/28 08:28:38;;;;;;;2.90;0.90;;;;;;;16.69;100.00;101365.28;4992552;28;20198;-78
2023/08/28 08:31:03;;;;;;;2.67;0.77;;;;;;;17.25;100.00;101415.69;5007163;28;20276;-78
2023/08/28 08:33:29;;;;;;;2.30;0.70;;;;;;;17.20;100.00;101418.25;5003766;28;20500;-78
2023/08/28 08:35:54;;;;;;;3.47;0.90;;;;;;;17.48;100.00;101411.41;4993684;28;20211;-80
2023/08/28 08:38:20;;;;;;;2.77;0.80;;;;;;;17.62;100.00;101410.16;4994184;28;20605;-78
2023/08/28 08:40:50;;;;;;;2.40;0.80;;;;;;;16.88;100.00;101342.56;4993345;28;20255;-79
2023/08/28 08:43:16;;;;;;;3.90;0.90;;;;;;;16.89;100.00;101319.84;4995588;28;20957;-78
2023/08/28 08:45:44;;;;;;;3.40;0.70;;;;;;;17.33;100.00;101366.56;4995698;28;20447;-78
2023/08/28 08:48:14;;;;;;;2.80;0.90;;;;;;;17.57;100.00;101372.06;4993404;28;20439;-80
2023/08/28 08:50:40;;;;;;;2.73;0.80;;;;;;;17.38;100.00;101353.13;4994050;28;20492;-80
2023/08/28 08:53:08;;;;;;;2.30;0.70;;;;;;;17.39;100.00;101324.16;4993758;28;20425;-80
2023/08/28 08:55:41;;;;;;;3.53;0.80;;;;;;;17.07;100.00;101253.13;4995115;28;20468;-80
2023/08/28 08:58:10;;;;;;;2.27;0.70;;;;;;;17.78;100.00;101319.16;4992818;28;20503;-78
2023/08/28 09:00:38;;;;;;;2.97;0.80;;;;;;;17.52;100.00;101264.25;5005535;28;20888;-78
2023/08/28 09:03:05;;;;;;;3.70;1.00;;;;;;;17.54;100.00;101231.47;4995275;28;20428;-79
2023/08/28 09:05:31;;;;;;;3.50;0.90;;;;;;;17.89;100.00;101288.47;4992883;28;20417;-78
2023/08/28 09:07:59;;;;;;;2.37;0.87;;;;;;;17.88;100.00;101294.97;4993952;28;20491;-80
2023/08/28 09:10:25;;;;;;;2.20;0.80;;;;;;;17.88;100.00;101283.28;4993338;28;20574;-78
2023/08/28 09:12:51;;;;;;;2.53;0.80;;;;;;;17.57;100.00;101244.56;4993640;28;20524;-79
2023/08/28 09:15:17;;;;;;;2.20;0.70;;;;;;;17.90;100.00;101297.44;4993232;28;20221;-77
2023/08/28 09:17:43;;;;;;;3.23;0.70;;;;;;;17.44;100.00;101180.53;5004895;28;20437;-79
2023/08/28 09:20:18;;;;;;;2.17;0.67;;;;;;;18.17;100.00;101249.75;4993983;28;20441;-79
2023/08/28 09:22:53;;;;;;;2.73;0.80;;;;;;;17.52;100.00;101161.19;4994328;28;20646;-81
2023/08/28 09:25:21;;;;;;;2.10;0.70;;;;;;;17.81;100.00;101210.16;4993804;28;20536;-78
2023/08/28 09:27:49;;;;;;;3.57;0.70;;;;;;;17.16;100.00;101143.28;4993778;28;20835;-79
2023/08/28 09:30:36;;;;;;;2.87;1.20;;;;;;;17.62;100.00;101248.22;4992140;28;20507;-78
2023/08/28 09:33:04;;;;;;;4.30;0.70;;;;;;;17.21;100.00;101194.06;4994943;28;20439;-77
2023/08/28 09:35:38;;;;;;;3.00;0.70;;;;;;;17.00;100.00;101176.50;5002117;28;20461;-78
2023/08/28 09:38:04;;;;;;;2.57;0.60;;;;;;;17.33;100.00;101244.56;4992750;28;20480;-77
2023/08/28 09:40:31;;;;;;;3.90;0.97;;;;;;;17.13;100.00;101261.13;4994017;28;20859;-76
2023/08/28 09:43:00;;;;;;;3.23;1.00;;;;;;;17.10;100.00;101304.97;4997252;28;20213;-77
2023/08/28 09:45:32;;;;;;;3.27;1.00;;;;;;;16.65;100.00;101232.19;4992310;28;20421;-78
2023/08/28 09:48:02;;;;;;;2.83;0.90;;;;;;;17.13;100.00;101309.09;4993170;28;20463;-79
2023/08/28 09:50:29;;;;;;;3.33;0.93;;;;;;;17.12;100.00;101337.25;4992881;28;20445;-76
2023/08/28 09:53:04;;;;;;;2.63;0.70;;;;;;;16.69;100.00;101267.75;4992551;28;20464;-77
2023/08/28 09:55:29;;;;;;;2.70;0.80;;;;;;;17.52;100.00;101358.34;4995827;28;20460;-78
2023/08/28 09:57:55;;;;;;;2.60;0.90;;;;;;;17.39;100.00;101322.25;4994227;28;20444;-77
2023/08/28 10:00:20;;;;;;;3.33;1.10;;;;;;;16.61;100.00;101148.94;4994161;28;20228;-78
2023/08/28 10:02:46;;;;;;;3.20;0.80;;;;;;;17.05;100.00;101187.47;4994987;28;20190;-79
2023/08/28 10:05:14;;;;;;;2.87;0.70;;;;;;;16.95;100.00;101112.16;4991336;28;20669;-77
2023/08/28 10:07:42;;;;;;;2.97;0.90;;;;;;;16.92;100.00;101080.13;4991613;28;21095;-78
2023/08/28 10:10:13;;;;;;;2.10;0.83;;;;;;;17.88;100.00;101175.59;4995519;28;20555;-77
2023/08/28 10:12:40;;;;;;;2.67;0.70;;;;;;;17.73;100.00;101082.97;5003618;28;20437;-78
2023/08/28 10:15:07;;;;;;;2.60;1.00;;;;;;;18.21;100.00;101144.22;4993323;28;20535;-77
2023/08/28 10:17:36;;;;;;;2.97;0.70;;;;;;;17.75;100.00;101081.66;4993174;28;20436;-80
2023/08/28 10:20:03;;;;;;;3.27;0.83;;;;;;;18.24;100.00;101109.25;5004295;28;20513;-80
2023/08/28 10:22:31;;;;;;;2.27;0.80;;;;;;;18.05;100.00;101077.91;4990797;28;20451;-79
2023/08/28 10:24:58;;;;;;;2.57;0.70;;;;;;;18.05;100.00;101048.06;4991433;28;20432;-78
2023/08/28 10:27:24;;;;;;;2.60;1.03;;;;;;;18.28;100.00;101041.69;4995935;28;20446;-78
2023/08/28 10:29:52;;;;;;;2.40;0.80;;;;;;;18.24;100.00;100988.97;4993733;28;20555;-79
2023/08/28 10:32:20;;;;;;;3.80;1.00;;;;;;;18.38;100.00;101019.34;4992546;28;20437;-79
2023/08/28 10:34:46;;;;;;;3.70;0.93;;;;;;;18.55;100.00;101020.16;4991045;28;20477;-78
2023/08/28 10:37:15;;;;;;;2.67;0.80;;;;;;;18.19;100.00;100954.41;4991746;28;20438;-78
2023/08/28 10:39:42;;;;;;;3.30;0.80;;;;;;;18.78;100.00;101018.38;4990805;28;20452;-79
2023/08/28 10:42:10;;;;;;;2.00;0.70;;;;;;;18.73;100.00;101030.78;4992601;28;20503;-79
2023/08/28 10:44:37;;;;;;;2.73;0.87;;;;;;;18.95;100.00;101019.16;4990722;28;20421;-78
2023/08/28 10:47:03;;;;;;;2.57;0.70;;;;;;;18.81;100.00;100931.72;5004211;28;20507;-78
2023/08/28 10:49:29;;;;;;;8.60;0.97;;;;;;;18.81;100.00;100939.88;4991540;28;20579;-78
2023/08/28 10:52:04;;;;;;;2.33;0.70;;;;;;;18.92;100.00;100927.25;4993229;28;20858;-79
2023/08/28 10:54:43;;;;;;;3.07;0.90;;;;;;;19.06;100.00;100930.41;4990120;28;20221;-80
2023/08/28 10:57:27;;;;;;;2.50;0.80;;;;;;;18.19;100.00;100818.66;4992480;28;20436;-79
2023/08/28 10:59:54;;;;;;;2.20;0.70;;;;;;;18.06;100.00;100781.03;4990635;28;20529;-78
2023/08/28 11:02:20;;;;;;;1.93;0.70;;;;;;;18.75;100.00;100886.56;4991046;28;20472;-78
2023/08/28 11:04:47;;;;;;;2.80;0.80;;;;;;;18.93;100.00;100850.91;4991665;28;20909;-80
2023/08/28 11:07:21;;;;;;;2.23;0.70;;;;;;;19.41;100.00;100908.22;4990805;28;20455;-78
2023/08/28 11:09:48;;;;;;;3.30;0.83;;;;;;;19.06;100.00;100904.03;4991353;28;20419;-80
2023/08/28 11:12:14;;;;;;;3.20;1.07;;;;;;;18.88;100.00;100909.81;4990953;28;20452;-79
2023/08/28 11:14:42;;;;;;;2.40;0.70;;;;;;;19.08;100.00;100911.94;4992636;28;20518;-79
2023/08/28 11:17:07;;;;;;;2.00;0.73;;;;;;;19.32;100.00;100898.91;4990027;28;20682;-80